Estación Meteorológica Peña el Pijo (Robertgarden) [ 01/30/23 14:00:01 CET ]

Fecha Hora Presion(HPa) Temp (°C) Humedad % Rocio (°C) Viento ( m/s) Direccion Lluvia 1Hora(mm) Lluvia 24H(mm) LLuvia Total(mm)
2012-Jun-08 01:01:13 1006.800 20.4 41 6.7         159.54
2012-Jun-08 02:01:14 1006.600 18.9 50 8.3         159.54
2012-Jun-08 03:05:19 1006.600 18.1 59 9.9         159.54
2012-Jun-08 04:01:16 1006.700 17.2 63 10.1         159.54
2012-Jun-08 05:01:12 1006.700 16.4 67 10.3         159.54
2012-Jun-08 06:01:15 1006.800 14.9 71 9.7         159.54
2012-Jun-08 07:01:18 1007.200 13.9 75 9.5         159.54
2012-Jun-08 08:01:14 1007.900 14.9 75 10.5         159.54
2012-Jun-08 09:01:14 1008.200 18.2 64 11.2         159.54
2012-Jun-08 10:01:17 1008.300 19.5 56 10.5         159.54
2012-Jun-08 11:01:13 1008.500 22.7 48 11.1         159.54
2012-Jun-08 12:01:16 1008.100 26.4 39 11.3         159.54
2012-Jun-08 13:01:14 1007.900 28.4 32 10.0 0.5 NNE     159.54
2012-Jun-08 14:01:13 1007.700 28.6 31 9.8         159.54
2012-Jun-08 15:01:14 1007.900 29.1 32 10.7         159.54
2012-Jun-08 16:01:23 1007.800 31.1 26 8.9         159.54
2012-Jun-08 17:01:13 1007.600 29.3 27 8.4         159.54
2012-Jun-08 18:01:16 1007.900 30.6 24 7.5         159.54
2012-Jun-08 19:01:14 1008.700 25.4 27 4.9         159.54
2012-Jun-08 20:01:16 1009.200 23.4 29 4.3         159.54
2012-Jun-08 21:01:11 1009.600 21.8 29 3.0         159.54
2012-Jun-08 22:01:14 1010.000 20.4 32 3.1         159.54
2012-Jun-08 23:01:14 1011.000 19.1 38 4.4         159.54

Temperatura Máxima:31°    Temperatura Mínima:13°
Presión Máxima:1011.000 Hpa    Presión Mínima:1006.600 Hpa


Volver